sensor_id;sensor_type;location;lat;lon;timestamp;pressure;altitude;pressure_sealevel;temperature;humidity
78313;BME280;67568;47.438;21.408;2023-05-20T00:01:02;101074.72;;;14.71;87.86
78313;BME280;67568;47.438;21.408;2023-05-20T00:03:29;101060.78;;;14.71;88.75
78313;BME280;67568;47.438;21.408;2023-05-20T00:05:58;101048.50;;;14.72;87.34
78313;BME280;67568;47.438;21.408;2023-05-20T00:08:32;101052.41;;;14.71;87.06
78313;BME280;67568;47.438;21.408;2023-05-20T00:10:59;101047.44;;;14.68;87.29
78313;BME280;67568;47.438;21.408;2023-05-20T00:13:26;101054.63;;;14.60;88.29
78313;BME280;67568;47.438;21.408;2023-05-20T00:15:53;101050.59;;;14.53;88.25
78313;BME280;67568;47.438;21.408;2023-05-20T00:18:20;101050.78;;;14.56;86.96
78313;BME280;67568;47.438;21.408;2023-05-20T00:20:46;101052.75;;;14.56;87.39
78313;BME280;67568;47.438;21.408;2023-05-20T00:23:13;101057.38;;;14.47;87.92
78313;BME280;67568;47.438;21.408;2023-05-20T00:25:40;101058.41;;;14.51;86.69
78313;BME280;67568;47.438;21.408;2023-05-20T00:28:09;101054.06;;;14.45;87.69
78313;BME280;67568;47.438;21.408;2023-05-20T00:30:39;101043.53;;;14.42;87.95
78313;BME280;67568;47.438;21.408;2023-05-20T00:33:06;101049.63;;;14.44;88.25
78313;BME280;67568;47.438;21.408;2023-05-20T00:35:33;101048.28;;;14.41;87.51
78313;BME280;67568;47.438;21.408;2023-05-20T00:38:01;101044.78;;;14.35;87.18
78313;BME280;67568;47.438;21.408;2023-05-20T00:40:27;101048.59;;;14.26;88.32
78313;BME280;67568;47.438;21.408;2023-05-20T00:42:58;101045.69;;;14.17;88.00
78313;BME280;67568;47.438;21.408;2023-05-20T00:45:25;101047.28;;;14.23;87.63
78313;BME280;67568;47.438;21.408;2023-05-20T00:47:55;101049.72;;;14.11;88.26
78313;BME280;67568;47.438;21.408;2023-05-20T00:50:22;101044.38;;;14.01;88.50
78313;BME280;67568;47.438;21.408;2023-05-20T00:52:51;101045.00;;;13.98;89.33
78313;BME280;67568;47.438;21.408;2023-05-20T00:55:18;101040.75;;;14.00;88.57
78313;BME280;67568;47.438;21.408;2023-05-20T00:57:45;101036.41;;;13.94;88.85
78313;BME280;67568;47.438;21.408;2023-05-20T01:00:21;101033.22;;;13.87;88.36
78313;BME280;67568;47.438;21.408;2023-05-20T01:02:48;101026.81;;;13.86;88.26
78313;BME280;67568;47.438;21.408;2023-05-20T01:05:15;101027.44;;;13.83;89.35
78313;BME280;67568;47.438;21.408;2023-05-20T01:07:42;101033.22;;;13.87;88.96
78313;BME280;67568;47.438;21.408;2023-05-20T01:10:14;101032.78;;;13.80;87.98
78313;BME280;67568;47.438;21.408;2023-05-20T01:12:53;101031.34;;;13.82;88.60
78313;BME280;67568;47.438;21.408;2023-05-20T01:15:26;101039.38;;;13.70;88.37
78313;BME280;67568;47.438;21.408;2023-05-20T01:17:57;101036.78;;;13.73;88.73
78313;BME280;67568;47.438;21.408;2023-05-20T01:20:27;101019.34;;;13.68;88.38
78313;BME280;67568;47.438;21.408;2023-05-20T01:22:58;101025.75;;;13.68;89.34
78313;BME280;67568;47.438;21.408;2023-05-20T01:25:25;101018.63;;;13.62;89.28
78313;BME280;67568;47.438;21.408;2023-05-20T01:27:53;101020.78;;;13.65;88.97
78313;BME280;67568;47.438;21.408;2023-05-20T01:30:29;101019.56;;;13.58;88.83
78313;BME280;67568;47.438;21.408;2023-05-20T01:33:01;101012.75;;;13.64;88.52
78313;BME280;67568;47.438;21.408;2023-05-20T01:35:30;101020.56;;;13.62;88.93
78313;BME280;67568;47.438;21.408;2023-05-20T01:38:01;101018.31;;;13.64;87.90
78313;BME280;67568;47.438;21.408;2023-05-20T01:40:28;101015.31;;;13.60;89.03
78313;BME280;67568;47.438;21.408;2023-05-20T01:42:57;101006.81;;;13.52;88.67
78313;BME280;67568;47.438;21.408;2023-05-20T01:45:27;101013.88;;;13.49;89.70
78313;BME280;67568;47.438;21.408;2023-05-20T01:47:55;101012.28;;;13.43;88.51
78313;BME280;67568;47.438;21.408;2023-05-20T01:50:22;101014.03;;;13.39;89.02
78313;BME280;67568;47.438;21.408;2023-05-20T01:52:51;101011.66;;;13.32;89.89
78313;BME280;67568;47.438;21.408;2023-05-20T01:55:19;101008.94;;;13.27;89.77
78313;BME280;67568;47.438;21.408;2023-05-20T01:57:46;101016.19;;;13.23;90.71
78313;BME280;67568;47.438;21.408;2023-05-20T02:00:19;101010.34;;;13.24;89.58
78313;BME280;67568;47.438;21.408;2023-05-20T02:02:45;101010.75;;;13.18;89.84
78313;BME280;67568;47.438;21.408;2023-05-20T02:05:13;101011.94;;;13.12;89.86
78313;BME280;67568;47.438;21.408;2023-05-20T02:07:39;101016.88;;;13.15;91.06
78313;BME280;67568;47.438;21.408;2023-05-20T02:10:07;101012.59;;;13.22;89.94
78313;BME280;67568;47.438;21.408;2023-05-20T02:12:33;100999.69;;;13.13;90.79
78313;BME280;67568;47.438;21.408;2023-05-20T02:15:00;101001.94;;;13.11;89.80
78313;BME280;67568;47.438;21.408;2023-05-20T02:17:27;101000.06;;;13.06;91.38
78313;BME280;67568;47.438;21.408;2023-05-20T02:19:54;101002.84;;;13.06;90.73
78313;BME280;67568;47.438;21.408;2023-05-20T02:22:21;101002.03;;;13.05;90.93
78313;BME280;67568;47.438;21.408;2023-05-20T02:24:47;100996.84;;;12.99;90.30
78313;BME280;67568;47.438;21.408;2023-05-20T02:27:14;101001.50;;;13.03;91.00
78313;BME280;67568;47.438;21.408;2023-05-20T02:29:42;101003.84;;;12.96;90.28
78313;BME280;67568;47.438;21.408;2023-05-20T02:32:09;100994.97;;;12.94;91.62
78313;BME280;67568;47.438;21.408;2023-05-20T02:34:36;100997.25;;;12.92;91.09
78313;BME280;67568;47.438;21.408;2023-05-20T02:37:06;101002.47;;;12.94;90.21
78313;BME280;67568;47.438;21.408;2023-05-20T02:39:32;101001.34;;;12.95;91.63
78313;BME280;67568;47.438;21.408;2023-05-20T02:41:59;101004.44;;;12.93;90.18
78313;BME280;67568;47.438;21.408;2023-05-20T02:44:26;101007.97;;;12.99;90.25
78313;BME280;67568;47.438;21.408;2023-05-20T02:46:53;101001.94;;;12.92;90.36
78313;BME280;67568;47.438;21.408;2023-05-20T02:49:19;100997.25;;;12.92;91.04
78313;BME280;67568;47.438;21.408;2023-05-20T02:51:49;100998.06;;;12.93;91.01
78313;BME280;67568;47.438;21.408;2023-05-20T02:54:16;101009.41;;;12.96;91.22
78313;BME280;67568;47.438;21.408;2023-05-20T02:56:42;101010.69;;;12.85;91.72
78313;BME280;67568;47.438;21.408;2023-05-20T02:59:12;101001.13;;;12.91;90.72
78313;BME280;67568;47.438;21.408;2023-05-20T03:01:39;100997.81;;;12.89;90.93
78313;BME280;67568;47.438;21.408;2023-05-20T03:04:08;100997.38;;;12.82;91.39
78313;BME280;67568;47.438;21.408;2023-05-20T03:06:34;101005.59;;;12.92;90.23
78313;BME280;67568;47.438;21.408;2023-05-20T03:09:01;101003.16;;;12.86;90.84
78313;BME280;67568;47.438;21.408;2023-05-20T03:11:37;101005.19;;;12.80;91.59
78313;BME280;67568;47.438;21.408;2023-05-20T03:14:03;101012.88;;;12.88;91.07
78313;BME280;67568;47.438;21.408;2023-05-20T03:16:32;101019.25;;;12.89;90.78
78313;BME280;67568;47.438;21.408;2023-05-20T03:18:59;101029.75;;;12.92;90.76
78313;BME280;67568;47.438;21.408;2023-05-20T03:21:28;101022.56;;;12.91;90.40
78313;BME280;67568;47.438;21.408;2023-05-20T03:23:55;101024.94;;;12.97;90.83
78313;BME280;67568;47.438;21.408;2023-05-20T03:26:22;101023.59;;;12.95;91.12
78313;BME280;67568;47.438;21.408;2023-05-20T03:28:51;101025.28;;;12.96;90.12
78313;BME280;67568;47.438;21.408;2023-05-20T03:31:18;101020.53;;;12.96;91.17
78313;BME280;67568;47.438;21.408;2023-05-20T03:33:45;101023.25;;;13.01;90.89
78313;BME280;67568;47.438;21.408;2023-05-20T03:36:14;101030.28;;;13.13;90.18
78313;BME280;67568;47.438;21.408;2023-05-20T03:38:41;101026.97;;;13.11;89.51
78313;BME280;67568;47.438;21.408;2023-05-20T03:41:08;101025.84;;;13.12;90.25
78313;BME280;67568;47.438;21.408;2023-05-20T03:43:34;101026.75;;;13.07;89.44
78313;BME280;67568;47.438;21.408;2023-05-20T03:46:01;101036.75;;;13.08;89.56
78313;BME280;67568;47.438;21.408;2023-05-20T03:48:28;101034.44;;;13.15;89.74
78313;BME280;67568;47.438;21.408;2023-05-20T03:50:58;101026.38;;;13.14;89.60
78313;BME280;67568;47.438;21.408;2023-05-20T03:53:25;101037.34;;;13.24;89.50
78313;BME280;67568;47.438;21.408;2023-05-20T03:55:52;101042.91;;;13.24;89.34
78313;BME280;67568;47.438;21.408;2023-05-20T03:58:19;101039.47;;;13.32;90.17
78313;BME280;67568;47.438;21.408;2023-05-20T04:00:46;101037.81;;;13.31;89.58
78313;BME280;67568;47.438;21.408;2023-05-20T04:03:13;101051.66;;;13.36;88.90
78313;BME280;67568;47.438;21.408;2023-05-20T04:05:43;101051.84;;;13.40;89.64
78313;BME280;67568;47.438;21.408;2023-05-20T04:08:13;101060.25;;;13.54;88.22
78313;BME280;67568;47.438;21.408;2023-05-20T04:10:41;101065.75;;;13.59;88.41
78313;BME280;67568;47.438;21.408;2023-05-20T04:13:11;101061.94;;;13.68;87.84
78313;BME280;67568;47.438;21.408;2023-05-20T04:15:38;101063.41;;;13.80;87.90
78313;BME280;67568;47.438;21.408;2023-05-20T04:18:05;101070.34;;;13.82;87.99
78313;BME280;67568;47.438;21.408;2023-05-20T04:20:32;101061.69;;;13.84;87.17
78313;BME280;67568;47.438;21.408;2023-05-20T04:22:58;101054.06;;;13.89;88.25
78313;BME280;67568;47.438;21.408;2023-05-20T04:25:25;101057.78;;;13.99;88.13
78313;BME280;67568;47.438;21.408;2023-05-20T04:27:52;101056.75;;;14.08;87.50
78313;BME280;67568;47.438;21.408;2023-05-20T04:30:19;101062.03;;;14.10;86.88
78313;BME280;67568;47.438;21.408;2023-05-20T04:32:48;101054.50;;;14.24;86.11
78313;BME280;67568;47.438;21.408;2023-05-20T04:35:16;101063.59;;;14.30;85.55
78313;BME280;67568;47.438;21.408;2023-05-20T04:37:55;101061.91;;;14.43;85.14
78313;BME280;67568;47.438;21.408;2023-05-20T04:40:22;101060.28;;;14.42;84.93
78313;BME280;67568;47.438;21.408;2023-05-20T04:42:48;101071.66;;;14.59;84.23
78313;BME280;67568;47.438;21.408;2023-05-20T04:45:15;101061.72;;;14.67;84.78
78313;BME280;67568;47.438;21.408;2023-05-20T04:47:43;101075.75;;;14.75;85.04
78313;BME280;67568;47.438;21.408;2023-05-20T04:50:11;101068.50;;;14.88;84.03
78313;BME280;67568;47.438;21.408;2023-05-20T04:52:38;101070.53;;;14.96;84.45
78313;BME280;67568;47.438;21.408;2023-05-20T04:55:06;101076.91;;;15.11;83.35
78313;BME280;67568;47.438;21.408;2023-05-20T04:57:33;101071.09;;;15.21;83.17
78313;BME280;67568;47.438;21.408;2023-05-20T05:00:00;101077.63;;;15.39;82.89
78313;BME280;67568;47.438;21.408;2023-05-20T05:02:27;101067.22;;;15.53;81.68
78313;BME280;67568;47.438;21.408;2023-05-20T05:04:54;101063.38;;;15.63;81.21
78313;BME280;67568;47.438;21.408;2023-05-20T05:07:21;101064.69;;;15.65;81.49
78313;BME280;67568;47.438;21.408;2023-05-20T05:09:48;101063.97;;;15.82;80.48
78313;BME280;67568;47.438;21.408;2023-05-20T05:12:17;101070.25;;;15.88;80.67
78313;BME280;67568;47.438;21.408;2023-05-20T05:14:44;101065.19;;;15.90;80.04
78313;BME280;67568;47.438;21.408;2023-05-20T05:17:11;101062.38;;;15.90;80.18
78313;BME280;67568;47.438;21.408;2023-05-20T05:19:38;101066.09;;;16.08;80.20
78313;BME280;67568;47.438;21.408;2023-05-20T05:22:04;101061.69;;;16.15;79.17
78313;BME280;67568;47.438;21.408;2023-05-20T05:24:31;101073.50;;;16.12;79.55
78313;BME280;67568;47.438;21.408;2023-05-20T05:26:58;101061.59;;;16.29;77.70
78313;BME280;67568;47.438;21.408;2023-05-20T05:29:25;101070.00;;;16.38;78.56
78313;BME280;67568;47.438;21.408;2023-05-20T05:31:53;101076.28;;;16.44;77.77
78313;BME280;67568;47.438;21.408;2023-05-20T05:34:20;101084.41;;;16.62;78.39
78313;BME280;67568;47.438;21.408;2023-05-20T05:36:49;101077.81;;;16.67;76.31
78313;BME280;67568;47.438;21.408;2023-05-20T05:39:16;101079.53;;;16.85;76.31
78313;BME280;67568;47.438;21.408;2023-05-20T05:41:59;101083.50;;;16.93;75.69
78313;BME280;67568;47.438;21.408;2023-05-20T05:44:26;101089.13;;;17.02;75.63
78313;BME280;67568;47.438;21.408;2023-05-20T05:46:55;101084.19;;;17.16;76.65
78313;BME280;67568;47.438;21.408;2023-05-20T05:49:22;101088.94;;;17.33;75.83
78313;BME280;67568;47.438;21.408;2023-05-20T05:51:52;101085.81;;;17.52;75.49
78313;BME280;67568;47.438;21.408;2023-05-20T05:54:19;101092.56;;;17.60;74.66
78313;BME280;67568;47.438;21.408;2023-05-20T05:56:46;101090.28;;;17.79;74.67
78313;BME280;67568;47.438;21.408;2023-05-20T05:59:14;101099.97;;;17.99;73.64
78313;BME280;67568;47.438;21.408;2023-05-20T06:01:42;101100.78;;;18.00;73.03
78313;BME280;67568;47.438;21.408;2023-05-20T06:04:12;101094.31;;;18.08;71.68
78313;BME280;67568;47.438;21.408;2023-05-20T06:06:39;101105.63;;;18.29;72.57
78313;BME280;67568;47.438;21.408;2023-05-20T06:09:06;101104.59;;;18.42;70.77
78313;BME280;67568;47.438;21.408;2023-05-20T06:11:35;101105.50;;;18.55;73.27
78313;BME280;67568;47.438;21.408;2023-05-20T06:14:02;101107.81;;;18.91;71.92
78313;BME280;67568;47.438;21.408;2023-05-20T06:16:29;101107.94;;;18.95;71.44
78313;BME280;67568;47.438;21.408;2023-05-20T06:18:56;101114.78;;;19.36;70.37
78313;BME280;67568;47.438;21.408;2023-05-20T06:21:23;101108.22;;;19.65;69.32
78313;BME280;67568;47.438;21.408;2023-05-20T06:23:50;101105.75;;;19.84;66.59
78313;BME280;67568;47.438;21.408;2023-05-20T06:26:18;101107.97;;;19.79;67.88
78313;BME280;67568;47.438;21.408;2023-05-20T06:29:02;101105.00;;;20.08;66.69
78313;BME280;67568;47.438;21.408;2023-05-20T06:31:31;101103.06;;;19.88;68.57
78313;BME280;67568;47.438;21.408;2023-05-20T06:34:00;101101.38;;;19.74;67.74
78313;BME280;67568;47.438;21.408;2023-05-20T06:36:27;101106.09;;;19.83;67.99
78313;BME280;67568;47.438;21.408;2023-05-20T06:38:53;101096.91;;;20.07;67.68
78313;BME280;67568;47.438;21.408;2023-05-20T06:41:20;101101.19;;;19.92;66.09
78313;BME280;67568;47.438;21.408;2023-05-20T06:43:47;101100.13;;;19.84;64.51
78313;BME280;67568;47.438;21.408;2023-05-20T06:46:16;101098.16;;;19.97;64.80
78313;BME280;67568;47.438;21.408;2023-05-20T06:48:43;101089.69;;;19.85;67.37
78313;BME280;67568;47.438;21.408;2023-05-20T06:51:10;101094.69;;;20.12;64.12
78313;BME280;67568;47.438;21.408;2023-05-20T06:53:37;101094.00;;;20.28;65.39
78313;BME280;67568;47.438;21.408;2023-05-20T06:56:04;101090.47;;;20.31;63.06
78313;BME280;67568;47.438;21.408;2023-05-20T06:58:31;101093.81;;;20.57;64.34
78313;BME280;67568;47.438;21.408;2023-05-20T07:00:58;101097.19;;;20.51;65.67
78313;BME280;67568;47.438;21.408;2023-05-20T07:03:25;101094.06;;;20.64;64.56
78313;BME280;67568;47.438;21.408;2023-05-20T07:05:52;101098.63;;;20.69;66.68
78313;BME280;67568;47.438;21.408;2023-05-20T07:08:19;101080.44;;;20.79;64.42
78313;BME280;67568;47.438;21.408;2023-05-20T07:10:46;101083.34;;;20.82;63.36
78313;BME280;67568;47.438;21.408;2023-05-20T07:13:15;101083.47;;;20.98;64.04
78313;BME280;67568;47.438;21.408;2023-05-20T07:15:47;101077.59;;;21.03;62.52
78313;BME280;67568;47.438;21.408;2023-05-20T07:18:14;101083.91;;;21.13;62.32
78313;BME280;67568;47.438;21.408;2023-05-20T07:20:41;101082.59;;;21.10;61.50
78313;BME280;67568;47.438;21.408;2023-05-20T07:23:08;101086.72;;;21.13;59.23
78313;BME280;67568;47.438;21.408;2023-05-20T07:25:34;101089.72;;;21.32;60.30
78313;BME280;67568;47.438;21.408;2023-05-20T07:28:04;101087.59;;;21.41;61.02
78313;BME280;67568;47.438;21.408;2023-05-20T07:30:31;101087.63;;;21.57;59.83
78313;BME280;67568;47.438;21.408;2023-05-20T07:32:57;101077.84;;;21.67;59.17
78313;BME280;67568;47.438;21.408;2023-05-20T07:35:24;101085.22;;;21.71;59.55
78313;BME280;67568;47.438;21.408;2023-05-20T07:37:51;101080.75;;;21.70;58.61
78313;BME280;67568;47.438;21.408;2023-05-20T07:40:32;101080.41;;;21.72;58.24
78313;BME280;67568;47.438;21.408;2023-05-20T07:43:02;101080.44;;;21.88;59.31
78313;BME280;67568;47.438;21.408;2023-05-20T07:45:29;101078.44;;;21.88;57.81
78313;BME280;67568;47.438;21.408;2023-05-20T07:47:59;101078.63;;;21.95;57.58
78313;BME280;67568;47.438;21.408;2023-05-20T07:50:26;101074.63;;;21.96;57.32
78313;BME280;67568;47.438;21.408;2023-05-20T07:52:53;101063.72;;;22.11;56.41
78313;BME280;67568;47.438;21.408;2023-05-20T07:55:22;101065.31;;;22.24;58.02
78313;BME280;67568;47.438;21.408;2023-05-20T07:57:49;101054.47;;;22.26;56.13
78313;BME280;67568;47.438;21.408;2023-05-20T08:00:16;101060.47;;;22.40;56.58
78313;BME280;67568;47.438;21.408;2023-05-20T08:02:43;101068.41;;;22.35;54.74
78313;BME280;67568;47.438;21.408;2023-05-20T08:05:10;101074.75;;;22.48;55.63
78313;BME280;67568;47.438;21.408;2023-05-20T08:07:37;101068.28;;;22.63;55.26
78313;BME280;67568;47.438;21.408;2023-05-20T08:10:04;101065.88;;;22.81;55.15
78313;BME280;67568;47.438;21.408;2023-05-20T08:12:31;101078.22;;;23.08;54.93
78313;BME280;67568;47.438;21.408;2023-05-20T08:15:01;101070.56;;;23.08;52.71
78313;BME280;67568;47.438;21.408;2023-05-20T08:17:27;101059.28;;;22.93;52.98
78313;BME280;67568;47.438;21.408;2023-05-20T08:19:54;101062.91;;;23.09;53.69
78313;BME280;67568;47.438;21.408;2023-05-20T08:22:24;101064.56;;;23.29;54.32
78313;BME280;67568;47.438;21.408;2023-05-20T08:24:51;101055.31;;;23.32;50.84
78313;BME280;67568;47.438;21.408;2023-05-20T08:27:17;101062.47;;;23.46;51.09
78313;BME280;67568;47.438;21.408;2023-05-20T08:29:44;101062.84;;;23.83;48.45
78313;BME280;67568;47.438;21.408;2023-05-20T08:32:12;101053.66;;;23.90;49.62
78313;BME280;67568;47.438;21.408;2023-05-20T08:34:41;101058.75;;;24.04;50.04
78313;BME280;67568;47.438;21.408;2023-05-20T08:37:09;101060.13;;;24.13;48.06
78313;BME280;67568;47.438;21.408;2023-05-20T08:39:36;101052.53;;;24.17;50.09
78313;BME280;67568;47.438;21.408;2023-05-20T08:42:03;101051.47;;;24.26;50.43
78313;BME280;67568;47.438;21.408;2023-05-20T08:44:33;101046.31;;;24.08;48.96
78313;BME280;67568;47.438;21.408;2023-05-20T08:47:02;101049.56;;;24.10;49.29
78313;BME280;67568;47.438;21.408;2023-05-20T08:49:37;101043.66;;;23.96;49.35
78313;BME280;67568;47.438;21.408;2023-05-20T08:52:05;101045.34;;;23.77;48.70
78313;BME280;67568;47.438;21.408;2023-05-20T08:54:42;101046.66;;;23.84;49.46
78313;BME280;67568;47.438;21.408;2023-05-20T08:57:09;101047.72;;;23.75;47.11
78313;BME280;67568;47.438;21.408;2023-05-20T08:59:36;101044.13;;;23.78;49.41
78313;BME280;67568;47.438;21.408;2023-05-20T09:02:03;101056.03;;;23.88;49.69
78313;BME280;67568;47.438;21.408;2023-05-20T09:04:33;101053.03;;;24.00;48.30
78313;BME280;67568;47.438;21.408;2023-05-20T09:07:06;101053.47;;;24.02;46.72
78313;BME280;67568;47.438;21.408;2023-05-20T09:09:36;101040.19;;;23.83;46.69
78313;BME280;67568;47.438;21.408;2023-05-20T09:12:03;101036.31;;;23.91;46.44
78313;BME280;67568;47.438;21.408;2023-05-20T09:14:30;101033.06;;;23.93;45.25
78313;BME280;67568;47.438;21.408;2023-05-20T09:17:00;101037.72;;;24.05;47.68
78313;BME280;67568;47.438;21.408;2023-05-20T09:19:27;101038.94;;;24.04;44.51
78313;BME280;67568;47.438;21.408;2023-05-20T09:21:56;101033.41;;;24.11;44.10
78313;BME280;67568;47.438;21.408;2023-05-20T09:24:33;101033.41;;;24.11;43.53
78313;BME280;67568;47.438;21.408;2023-05-20T09:27:00;101041.25;;;24.21;45.45
78313;BME280;67568;47.438;21.408;2023-05-20T09:29:32;101030.47;;;24.30;46.66
78313;BME280;67568;47.438;21.408;2023-05-20T09:32:00;101025.72;;;24.34;45.93
78313;BME280;67568;47.438;21.408;2023-05-20T09:34:30;101018.25;;;24.22;43.84
78313;BME280;67568;47.438;21.408;2023-05-20T09:37:01;101013.16;;;24.35;44.60
78313;BME280;67568;47.438;21.408;2023-05-20T09:39:38;101016.44;;;24.37;45.12
78313;BME280;67568;47.438;21.408;2023-05-20T09:42:17;101014.81;;;24.36;44.61
78313;BME280;67568;47.438;21.408;2023-05-20T09:44:44;101015.31;;;24.42;43.82
78313;BME280;67568;47.438;21.408;2023-05-20T09:47:15;101002.03;;;24.46;42.77
78313;BME280;67568;47.438;21.408;2023-05-20T09:49:51;101007.06;;;24.56;44.61
78313;BME280;67568;47.438;21.408;2023-05-20T09:52:18;101008.41;;;24.66;44.00
78313;BME280;67568;47.438;21.408;2023-05-20T09:54:48;100998.16;;;24.58;43.22
78313;BME280;67568;47.438;21.408;2023-05-20T09:57:15;100997.78;;;24.59;43.76
78313;BME280;67568;47.438;21.408;2023-05-20T09:59:45;100984.75;;;24.55;43.40
78313;BME280;67568;47.438;21.408;2023-05-20T10:02:14;100994.53;;;24.57;43.62
78313;BME280;67568;47.438;21.408;2023-05-20T10:04:44;100993.09;;;24.71;44.77
78313;BME280;67568;47.438;21.408;2023-05-20T10:07:38;100997.94;;;24.70;44.19
78313;BME280;67568;47.438;21.408;2023-05-20T10:19:19;100984.78;;;24.85;40.52
78313;BME280;67568;47.438;21.408;2023-05-20T10:22:24;100986.09;;;24.91;42.03
78313;BME280;67568;47.438;21.408;2023-05-20T10:25:04;100979.00;;;24.78;41.59
78313;BME280;67568;47.438;21.408;2023-05-20T10:27:42;100968.94;;;24.80;43.82
78313;BME280;67568;47.438;21.408;2023-05-20T10:30:15;100966.94;;;24.84;43.71
78313;BME280;67568;47.438;21.408;2023-05-20T10:32:51;100967.81;;;24.88;41.18
78313;BME280;67568;47.438;21.408;2023-05-20T10:35:23;100967.22;;;24.76;37.94
78313;BME280;67568;47.438;21.408;2023-05-20T10:37:53;100964.50;;;24.83;38.57
78313;BME280;67568;47.438;21.408;2023-05-20T10:40:21;100955.19;;;24.82;38.63
78313;BME280;67568;47.438;21.408;2023-05-20T10:42:48;100953.50;;;24.78;38.04
78313;BME280;67568;47.438;21.408;2023-05-20T10:45:28;100955.47;;;24.74;37.60
78313;BME280;67568;47.438;21.408;2023-05-20T10:47:56;100959.22;;;24.81;38.69
78313;BME280;67568;47.438;21.408;2023-05-20T10:50:41;100958.88;;;24.86;38.65
78313;BME280;67568;47.438;21.408;2023-05-20T10:53:11;100946.06;;;24.96;39.01
78313;BME280;67568;47.438;21.408;2023-05-20T10:55:54;100950.59;;;25.04;39.77
78313;BME280;67568;47.438;21.408;2023-05-20T10:58:23;100952.13;;;24.98;36.03
78313;BME280;67568;47.438;21.408;2023-05-20T11:00:53;100940.78;;;24.98;36.64
78313;BME280;67568;47.438;21.408;2023-05-20T11:03:21;100937.50;;;24.92;37.55
78313;BME280;67568;47.438;21.408;2023-05-20T11:05:50;100934.25;;;24.90;37.80
78313;BME280;67568;47.438;21.408;2023-05-20T11:08:17;100943.16;;;24.92;37.55
78313;BME280;67568;47.438;21.408;2023-05-20T11:10:58;100929.78;;;24.93;36.56
78313;BME280;67568;47.438;21.408;2023-05-20T11:13:25;100930.22;;;24.95;37.13
78313;BME280;67568;47.438;21.408;2023-05-20T11:16:03;100924.66;;;25.02;37.82
78313;BME280;67568;47.438;21.408;2023-05-20T11:18:30;100927.91;;;25.04;38.15
78313;BME280;67568;47.438;21.408;2023-05-20T11:21:00;100933.16;;;25.02;36.96
78313;BME280;67568;47.438;21.408;2023-05-20T11:23:30;100920.66;;;25.07;38.26
78313;BME280;67568;47.438;21.408;2023-05-20T11:25:57;100919.00;;;25.02;35.18
78313;BME280;67568;47.438;21.408;2023-05-20T11:28:24;100916.16;;;25.02;34.55
78313;BME280;67568;47.438;21.408;2023-05-20T11:30:52;100900.00;;;25.10;37.17
78313;BME280;67568;47.438;21.408;2023-05-20T11:33:26;100904.56;;;25.15;39.29
78313;BME280;67568;47.438;21.408;2023-05-20T11:35:54;100904.88;;;25.09;39.52
78313;BME280;67568;47.438;21.408;2023-05-20T11:38:22;100901.25;;;25.12;39.11
78313;BME280;67568;47.438;21.408;2023-05-20T11:40:51;100901.22;;;25.09;36.66
78313;BME280;67568;47.438;21.408;2023-05-20T11:43:25;100900.41;;;25.08;36.65
78313;BME280;67568;47.438;21.408;2023-05-20T11:45:54;100893.66;;;25.17;37.86
78313;BME280;67568;47.438;21.408;2023-05-20T11:48:31;100887.22;;;25.23;41.58
78313;BME280;67568;47.438;21.408;2023-05-20T11:50:58;100877.81;;;25.16;38.51
78313;BME280;67568;47.438;21.408;2023-05-20T11:53:29;100881.06;;;25.14;37.89
78313;BME280;67568;47.438;21.408;2023-05-20T11:55:57;100871.63;;;25.06;37.77
78313;BME280;67568;47.438;21.408;2023-05-20T11:58:29;100871.97;;;25.01;38.28
78313;BME280;67568;47.438;21.408;2023-05-20T12:01:00;100875.25;;;25.03;37.50
78313;BME280;67568;47.438;21.408;2023-05-20T12:03:46;100867.13;;;25.02;36.92
78313;BME280;67568;47.438;21.408;2023-05-20T12:06:16;100867.97;;;25.06;36.27
78313;BME280;67568;47.438;21.408;2023-05-20T12:08:43;100874.00;;;25.01;37.21
78313;BME280;67568;47.438;21.408;2023-05-20T12:11:10;100866.34;;;25.05;37.16
78313;BME280;67568;47.438;21.408;2023-05-20T12:13:39;100864.00;;;25.10;37.25
78313;BME280;67568;47.438;21.408;2023-05-20T12:16:07;100861.56;;;25.12;35.54
78313;BME280;67568;47.438;21.408;2023-05-20T12:18:34;100864.00;;;25.10;38.82
78313;BME280;67568;47.438;21.408;2023-05-20T12:21:01;100857.63;;;25.21;37.03
78313;BME280;67568;47.438;21.408;2023-05-20T12:23:29;100859.63;;;25.17;38.64
78313;BME280;67568;47.438;21.408;2023-05-20T12:25:56;100854.44;;;25.26;38.26
78313;BME280;67568;47.438;21.408;2023-05-20T12:28:23;100851.97;;;25.24;38.67
78313;BME280;67568;47.438;21.408;2023-05-20T12:30:50;100845.56;;;25.27;37.88
78313;BME280;67568;47.438;21.408;2023-05-20T12:33:19;100843.09;;;25.26;38.96
78313;BME280;67568;47.438;21.408;2023-05-20T12:35:46;100832.56;;;25.30;38.42
78313;BME280;67568;47.438;21.408;2023-05-20T12:38:13;100849.22;;;25.31;36.09
78313;BME280;67568;47.438;21.408;2023-05-20T12:40:40;100835.88;;;25.35;36.73
78313;BME280;67568;47.438;21.408;2023-05-20T12:43:09;100840.75;;;25.35;36.05
78313;BME280;67568;47.438;21.408;2023-05-20T12:45:36;100828.13;;;25.29;36.68
78313;BME280;67568;47.438;21.408;2023-05-20T12:48:03;100831.75;;;25.29;37.70
78313;BME280;67568;47.438;21.408;2023-05-20T12:50:30;100824.47;;;25.28;37.66
78313;BME280;67568;47.438;21.408;2023-05-20T12:53:00;100818.81;;;25.28;36.50
78313;BME280;67568;47.438;21.408;2023-05-20T12:55:30;100821.28;;;25.33;37.33
78313;BME280;67568;47.438;21.408;2023-05-20T12:57:58;100818.03;;;25.35;36.63